sensor_id;sensor_type;location;lat;lon;timestamp;pressure;altitude;pressure_sealevel;temperature;humidity
27984;BME280;15317;50.360;8.726;2023-08-12T00:02:05;99752.56;;;18.16;100.00
27984;BME280;15317;50.360;8.726;2023-08-12T00:07:08;99743.50;;;18.22;100.00
27984;BME280;15317;50.360;8.726;2023-08-12T00:12:11;99738.91;;;18.29;100.00
27984;BME280;15317;50.360;8.726;2023-08-12T00:17:16;99734.50;;;18.35;100.00
27984;BME280;15317;50.360;8.726;2023-08-12T00:22:20;99727.34;;;18.40;100.00
27984;BME280;15317;50.360;8.726;2023-08-12T00:27:23;99724.00;;;18.51;100.00
27984;BME280;15317;50.360;8.726;2023-08-12T00:32:28;99719.41;;;18.59;100.00
27984;BME280;15317;50.360;8.726;2023-08-12T00:37:31;99717.75;;;18.71;100.00
27984;BME280;15317;50.360;8.726;2023-08-12T00:42:34;99712.69;;;18.81;100.00
27984;BME280;15317;50.360;8.726;2023-08-12T00:47:39;99704.03;;;18.97;100.00
27984;BME280;15317;50.360;8.726;2023-08-12T00:52:43;99695.84;;;19.10;100.00
27984;BME280;15317;50.360;8.726;2023-08-12T00:57:47;99690.34;;;19.17;100.00
27984;BME280;15317;50.360;8.726;2023-08-12T01:02:52;99670.41;;;19.15;100.00
27984;BME280;15317;50.360;8.726;2023-08-12T01:07:57;99672.09;;;19.09;100.00
27984;BME280;15317;50.360;8.726;2023-08-12T01:13:07;99678.47;;;19.10;100.00
27984;BME280;15317;50.360;8.726;2023-08-12T01:18:16;99678.03;;;19.13;100.00
27984;BME280;15317;50.360;8.726;2023-08-12T01:23:22;99661.50;;;19.13;100.00
27984;BME280;15317;50.360;8.726;2023-08-12T01:28:25;99658.13;;;19.17;100.00
27984;BME280;15317;50.360;8.726;2023-08-12T01:33:34;99649.25;;;19.15;100.00
27984;BME280;15317;50.360;8.726;2023-08-12T01:38:39;99649.66;;;19.12;100.00
27984;BME280;15317;50.360;8.726;2023-08-12T01:43:44;99643.28;;;19.12;100.00
27984;BME280;15317;50.360;8.726;2023-08-12T01:48:48;99640.34;;;19.13;100.00
27984;BME280;15317;50.360;8.726;2023-08-12T01:53:52;99631.66;;;19.10;100.00
27984;BME280;15317;50.360;8.726;2023-08-12T01:58:55;99637.16;;;19.10;100.00
27984;BME280;15317;50.360;8.726;2023-08-12T02:03:58;99641.38;;;19.12;100.00
27984;BME280;15317;50.360;8.726;2023-08-12T02:09:03;99633.13;;;19.12;100.00
27984;BME280;15317;50.360;8.726;2023-08-12T02:14:07;99644.13;;;19.12;100.00
27984;BME280;15317;50.360;8.726;2023-08-12T02:19:10;99646.69;;;19.07;100.00
27984;BME280;15317;50.360;8.726;2023-08-12T02:24:14;99652.41;;;19.12;100.00
27984;BME280;15317;50.360;8.726;2023-08-12T02:29:18;99646.88;;;19.12;100.00
27984;BME280;15317;50.360;8.726;2023-08-12T02:34:21;99655.59;;;19.16;100.00
27984;BME280;15317;50.360;8.726;2023-08-12T02:39:25;99668.91;;;19.19;100.00
27984;BME280;15317;50.360;8.726;2023-08-12T02:44:28;99688.19;;;19.12;100.00
27984;BME280;15317;50.360;8.726;2023-08-12T02:49:32;99694.97;;;19.03;100.00
27984;BME280;15317;50.360;8.726;2023-08-12T02:54:37;99695.78;;;18.90;100.00
27984;BME280;15317;50.360;8.726;2023-08-12T02:59:40;99710.59;;;18.83;100.00
27984;BME280;15317;50.360;8.726;2023-08-12T03:04:43;99717.13;;;18.75;100.00
27984;BME280;15317;50.360;8.726;2023-08-12T03:09:49;99730.63;;;18.64;100.00
27984;BME280;15317;50.360;8.726;2023-08-12T03:14:52;99752.41;;;18.59;100.00
27984;BME280;15317;50.360;8.726;2023-08-12T03:19:56;99752.00;;;18.62;100.00
27984;BME280;15317;50.360;8.726;2023-08-12T03:25:03;99757.06;;;18.58;100.00
27984;BME280;15317;50.360;8.726;2023-08-12T03:30:08;99760.88;;;18.64;100.00
27984;BME280;15317;50.360;8.726;2023-08-12T03:35:12;99752.69;;;18.77;100.00
27984;BME280;15317;50.360;8.726;2023-08-12T03:40:16;99744.25;;;18.85;100.00
27984;BME280;15317;50.360;8.726;2023-08-12T03:45:20;99737.28;;;18.82;100.00
27984;BME280;15317;50.360;8.726;2023-08-12T03:50:23;99763.50;;;18.78;100.00
27984;BME280;15317;50.360;8.726;2023-08-12T03:55:30;99756.72;;;18.81;100.00
27984;BME280;15317;50.360;8.726;2023-08-12T04:00:33;99777.91;;;18.80;100.00
27984;BME280;15317;50.360;8.726;2023-08-12T04:05:37;99781.31;;;18.82;100.00
27984;BME280;15317;50.360;8.726;2023-08-12T04:10:44;99777.47;;;18.83;100.00
27984;BME280;15317;50.360;8.726;2023-08-12T04:15:48;99784.25;;;18.81;100.00
27984;BME280;15317;50.360;8.726;2023-08-12T04:20:52;99778.75;;;18.81;100.00
27984;BME280;15317;50.360;8.726;2023-08-12T04:25:58;99743.38;;;18.78;100.00
27984;BME280;15317;50.360;8.726;2023-08-12T04:31:06;99727.91;;;18.77;100.00
27984;BME280;15317;50.360;8.726;2023-08-12T04:36:09;99714.59;;;18.74;100.00
27984;BME280;15317;50.360;8.726;2023-08-12T04:41:14;99727.28;;;18.75;100.00
27984;BME280;15317;50.360;8.726;2023-08-12T04:46:17;99717.75;;;18.71;100.00
27984;BME280;15317;50.360;8.726;2023-08-12T04:51:21;99708.44;;;18.72;100.00
27984;BME280;15317;50.360;8.726;2023-08-12T04:56:25;99707.38;;;18.73;100.00
27984;BME280;15317;50.360;8.726;2023-08-12T05:01:30;99723.25;;;18.71;100.00
27984;BME280;15317;50.360;8.726;2023-08-12T05:06:34;99729.19;;;18.68;100.00
27984;BME280;15317;50.360;8.726;2023-08-12T05:11:38;99715.19;;;18.63;100.00
27984;BME280;15317;50.360;8.726;2023-08-12T05:16:42;99714.78;;;18.66;100.00
27984;BME280;15317;50.360;8.726;2023-08-12T05:21:45;99719.03;;;18.68;100.00
27984;BME280;15317;50.360;8.726;2023-08-12T05:26:50;99716.88;;;18.70;100.00
27984;BME280;15317;50.360;8.726;2023-08-12T05:31:53;99716.94;;;18.83;100.00
27984;BME280;15317;50.360;8.726;2023-08-12T05:36:57;99713.13;;;18.91;100.00
27984;BME280;15317;50.360;8.726;2023-08-12T05:42:01;99702.78;;;18.93;100.00
27984;BME280;15317;50.360;8.726;2023-08-12T05:47:04;99702.94;;;18.78;100.00
27984;BME280;15317;50.360;8.726;2023-08-12T05:52:08;99706.16;;;18.88;100.00
27984;BME280;15317;50.360;8.726;2023-08-12T05:57:13;99700.03;;;19.00;100.00
27984;BME280;15317;50.360;8.726;2023-08-12T06:02:16;99704.31;;;19.28;100.00
27984;BME280;15317;50.360;8.726;2023-08-12T06:07:20;99699.66;;;19.22;100.00
27984;BME280;15317;50.360;8.726;2023-08-12T06:12:26;99687.34;;;19.31;100.00
27984;BME280;15317;50.360;8.726;2023-08-12T06:17:29;99685.69;;;19.24;100.00
27984;BME280;15317;50.360;8.726;2023-08-12T06:22:32;99687.16;;;19.20;100.00
27984;BME280;15317;50.360;8.726;2023-08-12T06:27:37;99705.38;;;19.27;100.00
27984;BME280;15317;50.360;8.726;2023-08-12T06:32:41;99720.88;;;19.48;100.00
27984;BME280;15317;50.360;8.726;2023-08-12T06:37:44;99708.16;;;19.67;100.00
27984;BME280;15317;50.360;8.726;2023-08-12T06:42:48;99714.44;;;20.13;100.00
27984;BME280;15317;50.360;8.726;2023-08-12T06:47:52;99695.97;;;20.78;100.00
27984;BME280;15317;50.360;8.726;2023-08-12T06:52:55;99679.09;;;21.24;100.00
27984;BME280;15317;50.360;8.726;2023-08-12T06:57:59;99671.22;;;21.28;100.00
27984;BME280;15317;50.360;8.726;2023-08-12T07:03:03;99682.50;;;21.51;100.00
27984;BME280;15317;50.360;8.726;2023-08-12T07:08:06;99666.53;;;21.53;100.00
27984;BME280;15317;50.360;8.726;2023-08-12T07:13:11;99670.50;;;21.39;100.00
27984;BME280;15317;50.360;8.726;2023-08-12T07:18:14;99655.44;;;22.03;100.00
27984;BME280;15317;50.360;8.726;2023-08-12T07:23:17;99660.75;;;21.80;100.00
27984;BME280;15317;50.360;8.726;2023-08-12T07:28:22;99667.72;;;22.07;100.00
27984;BME280;15317;50.360;8.726;2023-08-12T07:33:25;99651.88;;;23.10;100.00
27984;BME280;15317;50.360;8.726;2023-08-12T07:38:28;99661.25;;;23.62;100.00
27984;BME280;15317;50.360;8.726;2023-08-12T07:43:33;99649.09;;;23.87;100.00
27984;BME280;15317;50.360;8.726;2023-08-12T07:48:36;99635.56;;;23.90;100.00
27984;BME280;15317;50.360;8.726;2023-08-12T07:53:40;99651.94;;;24.03;100.00
27984;BME280;15317;50.360;8.726;2023-08-12T07:58:44;99668.53;;;23.22;100.00
27984;BME280;15317;50.360;8.726;2023-08-12T08:03:49;99670.34;;;22.68;100.00
27984;BME280;15317;50.360;8.726;2023-08-12T08:08:52;99667.59;;;23.40;100.00
27984;BME280;15317;50.360;8.726;2023-08-12T08:13:57;99659.50;;;23.27;100.00
27984;BME280;15317;50.360;8.726;2023-08-12T08:19:01;99663.41;;;23.07;100.00
27984;BME280;15317;50.360;8.726;2023-08-12T08:24:04;99667.00;;;22.96;100.00
27984;BME280;15317;50.360;8.726;2023-08-12T08:29:09;99675.84;;;22.75;100.00
27984;BME280;15317;50.360;8.726;2023-08-12T08:34:12;99660.84;;;22.46;100.00
27984;BME280;15317;50.360;8.726;2023-08-12T08:39:15;99658.97;;;22.28;100.00
27984;BME280;15317;50.360;8.726;2023-08-12T08:44:22;99668.34;;;22.09;100.00
27984;BME280;15317;50.360;8.726;2023-08-12T08:49:25;99652.34;;;22.11;100.00
27984;BME280;15317;50.360;8.726;2023-08-12T08:54:29;99649.69;;;22.53;100.00
27984;BME280;15317;50.360;8.726;2023-08-12T08:59:33;99658.41;;;23.28;100.00
27984;BME280;15317;50.360;8.726;2023-08-12T09:04:37;99650.38;;;23.38;100.00
27984;BME280;15317;50.360;8.726;2023-08-12T09:09:44;99649.28;;;23.39;100.00
27984;BME280;15317;50.360;8.726;2023-08-12T09:14:51;99640.91;;;23.15;100.00
27984;BME280;15317;50.360;8.726;2023-08-12T09:19:54;99629.31;;;23.48;100.00
27984;BME280;15317;50.360;8.726;2023-08-12T09:24:57;99641.03;;;24.37;100.00
27984;BME280;15317;50.360;8.726;2023-08-12T09:30:04;99620.25;;;25.75;100.00
27984;BME280;15317;50.360;8.726;2023-08-12T09:35:15;99607.94;;;25.54;100.00
27984;BME280;15317;50.360;8.726;2023-08-12T09:40:19;99628.50;;;25.03;100.00
27984;BME280;15317;50.360;8.726;2023-08-12T09:45:24;99622.84;;;24.41;100.00
27984;BME280;15317;50.360;8.726;2023-08-12T09:50:28;99632.69;;;23.62;100.00
27984;BME280;15317;50.360;8.726;2023-08-12T09:55:33;99614.34;;;23.61;100.00
27984;BME280;15317;50.360;8.726;2023-08-12T10:00:40;99601.22;;;23.56;100.00
27984;BME280;15317;50.360;8.726;2023-08-12T10:05:44;99602.38;;;23.95;100.00
27984;BME280;15317;50.360;8.726;2023-08-12T10:10:47;99620.72;;;25.05;100.00
27984;BME280;15317;50.360;8.726;2023-08-12T10:16:12;99595.66;;;27.29;100.00
27984;BME280;15317;50.360;8.726;2023-08-12T10:21:16;99613.50;;;28.02;90.26
27984;BME280;15317;50.360;8.726;2023-08-12T10:26:20;99604.59;;;27.31;94.50
27984;BME280;15317;50.360;8.726;2023-08-12T10:31:26;99620.91;;;26.42;100.00
27984;BME280;15317;50.360;8.726;2023-08-12T10:36:31;99621.19;;;26.02;100.00
27984;BME280;15317;50.360;8.726;2023-08-12T10:41:50;99642.66;;;25.35;100.00
27984;BME280;15317;50.360;8.726;2023-08-12T10:46:58;99651.88;;;24.50;100.00
27984;BME280;15317;50.360;8.726;2023-08-12T10:52:01;99656.78;;;23.96;100.00
27984;BME280;15317;50.360;8.726;2023-08-12T10:57:08;99645.22;;;23.53;100.00
27984;BME280;15317;50.360;8.726;2023-08-12T11:02:16;99671.28;;;23.10;100.00
27984;BME280;15317;50.360;8.726;2023-08-12T11:07:21;99654.28;;;22.59;100.00
27984;BME280;15317;50.360;8.726;2023-08-12T11:12:29;99655.97;;;22.12;100.00
27984;BME280;15317;50.360;8.726;2023-08-12T11:17:35;99644.22;;;21.73;100.00
27984;BME280;15317;50.360;8.726;2023-08-12T11:22:40;99644.44;;;21.53;100.00
27984;BME280;15317;50.360;8.726;2023-08-12T11:27:44;99630.56;;;21.35;100.00
27984;BME280;15317;50.360;8.726;2023-08-12T11:32:50;99620.88;;;21.26;100.00
27984;BME280;15317;50.360;8.726;2023-08-12T11:37:56;99635.69;;;21.32;100.00
27984;BME280;15317;50.360;8.726;2023-08-12T11:42:59;99653.44;;;21.85;100.00
27984;BME280;15317;50.360;8.726;2023-08-12T11:48:04;99636.09;;;23.11;100.00
27984;BME280;15317;50.360;8.726;2023-08-12T11:53:08;99606.38;;;23.99;100.00
27984;BME280;15317;50.360;8.726;2023-08-12T11:58:13;99579.88;;;24.60;100.00
27984;BME280;15317;50.360;8.726;2023-08-12T12:03:21;99592.06;;;24.88;100.00
27984;BME280;15317;50.360;8.726;2023-08-12T12:08:25;99592.13;;;24.48;100.00
27984;BME280;15317;50.360;8.726;2023-08-12T12:13:29;99598.09;;;24.39;100.00
27984;BME280;15317;50.360;8.726;2023-08-12T12:18:35;99614.84;;;23.81;100.00
27984;BME280;15317;50.360;8.726;2023-08-12T12:23:38;99621.94;;;23.77;100.00
27984;BME280;15317;50.360;8.726;2023-08-12T12:28:42;99608.81;;;23.61;100.00
27984;BME280;15317;50.360;8.726;2023-08-12T12:33:46;99606.47;;;23.35;100.00
27984;BME280;15317;50.360;8.726;2023-08-12T12:38:49;99620.63;;;22.92;100.00
27984;BME280;15317;50.360;8.726;2023-08-12T12:43:53;99621.09;;;22.89;100.00
27984;BME280;15317;50.360;8.726;2023-08-12T12:48:57;99642.28;;;22.83;100.00
27984;BME280;15317;50.360;8.726;2023-08-12T12:54:01;99644.28;;;23.06;100.00
27984;BME280;15317;50.360;8.726;2023-08-12T12:59:04;99651.97;;;23.57;100.00
27984;BME280;15317;50.360;8.726;2023-08-12T13:04:09;99627.25;;;24.82;100.00
27984;BME280;15317;50.360;8.726;2023-08-12T13:09:12;99620.72;;;25.88;100.00
27984;BME280;15317;50.360;8.726;2023-08-12T13:14:15;99614.00;;;26.45;100.00
27984;BME280;15317;50.360;8.726;2023-08-12T13:19:22;99591.44;;;26.68;100.00
27984;BME280;15317;50.360;8.726;2023-08-12T13:24:25;99586.38;;;26.65;100.00
27984;BME280;15317;50.360;8.726;2023-08-12T13:29:29;99566.38;;;26.95;100.00
27984;BME280;15317;50.360;8.726;2023-08-12T13:34:35;99560.84;;;27.00;100.00
27984;BME280;15317;50.360;8.726;2023-08-12T13:39:38;99556.84;;;27.23;100.00
27984;BME280;15317;50.360;8.726;2023-08-12T13:44:41;99548.09;;;27.51;100.00
27984;BME280;15317;50.360;8.726;2023-08-12T13:49:45;99555.88;;;27.44;100.00
27984;BME280;15317;50.360;8.726;2023-08-12T13:54:48;99561.38;;;27.71;100.00
27984;BME280;15317;50.360;8.726;2023-08-12T13:59:52;99568.59;;;26.98;100.00
27984;BME280;15317;50.360;8.726;2023-08-12T14:04:56;99562.31;;;26.10;100.00
27984;BME280;15317;50.360;8.726;2023-08-12T14:09:59;99552.00;;;25.50;100.00
27984;BME280;15317;50.360;8.726;2023-08-12T14:15:03;99546.59;;;25.61;100.00
27984;BME280;15317;50.360;8.726;2023-08-12T14:20:09;99544.94;;;26.47;100.00
27984;BME280;15317;50.360;8.726;2023-08-12T14:25:12;99541.94;;;26.80;100.00
27984;BME280;15317;50.360;8.726;2023-08-12T14:30:17;99526.44;;;26.89;100.00
27984;BME280;15317;50.360;8.726;2023-08-12T14:35:22;99542.63;;;26.39;100.00
27984;BME280;15317;50.360;8.726;2023-08-12T14:40:26;99522.94;;;26.02;100.00
27984;BME280;15317;50.360;8.726;2023-08-12T14:45:30;99503.50;;;26.28;100.00
27984;BME280;15317;50.360;8.726;2023-08-12T14:50:34;99498.78;;;26.29;100.00
27984;BME280;15317;50.360;8.726;2023-08-12T14:55:41;99490.88;;;26.21;100.00
27984;BME280;15317;50.360;8.726;2023-08-12T15:00:45;99492.25;;;26.18;100.00
27984;BME280;15317;50.360;8.726;2023-08-12T15:05:59;99497.38;;;25.83;100.00
27984;BME280;15317;50.360;8.726;2023-08-12T15:11:03;99479.19;;;25.97;100.00
27984;BME280;15317;50.360;8.726;2023-08-12T15:16:06;99476.44;;;26.24;100.00
27984;BME280;15317;50.360;8.726;2023-08-12T15:21:11;99488.06;;;26.43;100.00
27984;BME280;15317;50.360;8.726;2023-08-12T15:26:14;99486.25;;;26.05;100.00
27984;BME280;15317;50.360;8.726;2023-08-12T15:31:17;99486.78;;;25.41;100.00
27984;BME280;15317;50.360;8.726;2023-08-12T15:36:21;99497.66;;;25.26;100.00
27984;BME280;15317;50.360;8.726;2023-08-12T15:41:24;99500.13;;;25.06;100.00
27984;BME280;15317;50.360;8.726;2023-08-12T15:46:28;99501.47;;;24.87;100.00
27984;BME280;15317;50.360;8.726;2023-08-12T15:51:33;99510.56;;;24.82;100.00
27984;BME280;15317;50.360;8.726;2023-08-12T15:56:36;99515.88;;;24.84;100.00
27984;BME280;15317;50.360;8.726;2023-08-12T16:01:39;99517.53;;;24.85;100.00
27984;BME280;15317;50.360;8.726;2023-08-12T16:06:44;99515.28;;;24.82;100.00
27984;BME280;15317;50.360;8.726;2023-08-12T16:11:48;99513.59;;;24.80;100.00
27984;BME280;15317;50.360;8.726;2023-08-12T16:16:51;99524.03;;;24.73;100.00
27984;BME280;15317;50.360;8.726;2023-08-12T16:21:55;99522.69;;;24.76;100.00
27984;BME280;15317;50.360;8.726;2023-08-12T16:26:59;99521.88;;;24.92;100.00
27984;BME280;15317;50.360;8.726;2023-08-12T16:32:05;99516.25;;;25.04;100.00
27984;BME280;15317;50.360;8.726;2023-08-12T16:37:10;99526.25;;;25.05;100.00
27984;BME280;15317;50.360;8.726;2023-08-12T16:42:22;99527.50;;;25.14;100.00
27984;BME280;15317;50.360;8.726;2023-08-12T16:47:25;99531.38;;;25.13;98.48
27984;BME280;15317;50.360;8.726;2023-08-12T16:52:34;99523.97;;;25.02;97.10
27984;BME280;15317;50.360;8.726;2023-08-12T16:57:37;99536.41;;;24.83;99.77
27984;BME280;15317;50.360;8.726;2023-08-12T17:02:40;99540.09;;;24.71;97.77
27984;BME280;15317;50.360;8.726;2023-08-12T17:07:45;99543.38;;;24.68;100.00
27984;BME280;15317;50.360;8.726;2023-08-12T17:12:48;99549.78;;;24.86;100.00
27984;BME280;15317;50.360;8.726;2023-08-12T17:17:51;99530.41;;;24.74;100.00
27984;BME280;15317;50.360;8.726;2023-08-12T17:22:56;99534.81;;;24.70;100.00
27984;BME280;15317;50.360;8.726;2023-08-12T17:27:59;99540.00;;;24.66;100.00
27984;BME280;15317;50.360;8.726;2023-08-12T17:33:02;99540.16;;;24.60;100.00
27984;BME280;15317;50.360;8.726;2023-08-12T17:38:07;99532.06;;;24.42;100.00
27984;BME280;15317;50.360;8.726;2023-08-12T17:43:10;99513.91;;;24.11;100.00
27984;BME280;15317;50.360;8.726;2023-08-12T17:48:13;99512.09;;;23.76;100.00
27984;BME280;15317;50.360;8.726;2023-08-12T17:53:18;99501.16;;;23.58;100.00
27984;BME280;15317;50.360;8.726;2023-08-12T17:58:21;99518.41;;;23.37;100.00
27984;BME280;15317;50.360;8.726;2023-08-12T18:03:24;99520.34;;;23.13;100.00
27984;BME280;15317;50.360;8.726;2023-08-12T18:08:29;99526.56;;;22.85;100.00
27984;BME280;15317;50.360;8.726;2023-08-12T18:13:32;99525.53;;;22.68;100.00
27984;BME280;15317;50.360;8.726;2023-08-12T18:18:36;99538.97;;;22.53;100.00
27984;BME280;15317;50.360;8.726;2023-08-12T18:23:40;99546.72;;;22.32;100.00
27984;BME280;15317;50.360;8.726;2023-08-12T18:28:43;99551.59;;;22.19;100.00
27984;BME280;15317;50.360;8.726;2023-08-12T18:33:47;99556.84;;;22.09;100.00
27984;BME280;15317;50.360;8.726;2023-08-12T18:38:51;99564.38;;;22.01;100.00
27984;BME280;15317;50.360;8.726;2023-08-12T18:43:54;99575.19;;;21.85;100.00
27984;BME280;15317;50.360;8.726;2023-08-12T18:48:57;99584.41;;;21.60;100.00
27984;BME280;15317;50.360;8.726;2023-08-12T18:54:02;99593.28;;;21.44;100.00
27984;BME280;15317;50.360;8.726;2023-08-12T18:59:06;99603.78;;;21.36;100.00
27984;BME280;15317;50.360;8.726;2023-08-12T19:04:09;99615.97;;;21.28;100.00
27984;BME280;15317;50.360;8.726;2023-08-12T19:09:15;99635.44;;;21.08;100.00
27984;BME280;15317;50.360;8.726;2023-08-12T19:14:19;99633.47;;;20.84;100.00
27984;BME280;15317;50.360;8.726;2023-08-12T19:19:22;99638.75;;;20.61;100.00
27984;BME280;15317;50.360;8.726;2023-08-12T19:24:27;99659.66;;;20.37;100.00
27984;BME280;15317;50.360;8.726;2023-08-12T19:29:30;99669.25;;;20.15;100.00
27984;BME280;15317;50.360;8.726;2023-08-12T19:34:33;99684.13;;;20.00;100.00
27984;BME280;15317;50.360;8.726;2023-08-12T19:39:38;99692.03;;;19.84;100.00
27984;BME280;15317;50.360;8.726;2023-08-12T19:44:41;99702.44;;;19.68;100.00
27984;BME280;15317;50.360;8.726;2023-08-12T19:49:45;99718.31;;;19.60;100.00
27984;BME280;15317;50.360;8.726;2023-08-12T19:54:49;99715.16;;;19.50;100.00
27984;BME280;15317;50.360;8.726;2023-08-12T19:59:52;99724.69;;;19.47;100.00
27984;BME280;15317;50.360;8.726;2023-08-12T20:04:57;99735.03;;;19.45;100.00
27984;BME280;15317;50.360;8.726;2023-08-12T20:10:02;99736.72;;;19.40;100.00
27984;BME280;15317;50.360;8.726;2023-08-12T20:15:06;99741.16;;;19.27;100.00
27984;BME280;15317;50.360;8.726;2023-08-12T20:20:10;99736.28;;;19.16;100.00
27984;BME280;15317;50.360;8.726;2023-08-12T20:25:16;99746.44;;;19.09;100.00
27984;BME280;15317;50.360;8.726;2023-08-12T20:30:19;99738.59;;;19.06;100.00
27984;BME280;15317;50.360;8.726;2023-08-12T20:35:22;99748.09;;;18.97;100.00
27984;BME280;15317;50.360;8.726;2023-08-12T20:40:27;99752.97;;;18.95;100.00
27984;BME280;15317;50.360;8.726;2023-08-12T20:45:30;99763.53;;;18.91;100.00
27984;BME280;15317;50.360;8.726;2023-08-12T20:50:33;99755.06;;;18.93;100.00
27984;BME280;15317;50.360;8.726;2023-08-12T20:55:38;99758.03;;;18.98;100.00
27984;BME280;15317;50.360;8.726;2023-08-12T21:00:41;99748.72;;;18.92;100.00
27984;BME280;15317;50.360;8.726;2023-08-12T21:05:48;99754.00;;;18.87;100.00
27984;BME280;15317;50.360;8.726;2023-08-12T21:10:54;99759.69;;;18.79;100.00
27984;BME280;15317;50.360;8.726;2023-08-12T21:15:57;99762.22;;;18.74;100.00
27984;BME280;15317;50.360;8.726;2023-08-12T21:21:01;99771.06;;;18.70;100.00
27984;BME280;15317;50.360;8.726;2023-08-12T21:26:05;99772.53;;;18.66;100.00
27984;BME280;15317;50.360;8.726;2023-08-12T21:31:08;99779.91;;;18.59;100.00
27984;BME280;15317;50.360;8.726;2023-08-12T21:36:14;99775.19;;;18.52;100.00
27984;BME280;15317;50.360;8.726;2023-08-12T21:41:18;99784.50;;;18.51;100.00
27984;BME280;15317;50.360;8.726;2023-08-12T21:46:21;99791.91;;;18.51;100.00
27984;BME280;15317;50.360;8.726;2023-08-12T21:51:25;99795.28;;;18.46;100.00
27984;BME280;15317;50.360;8.726;2023-08-12T21:56:30;99797.78;;;18.41;100.00
27984;BME280;15317;50.360;8.726;2023-08-12T22:01:33;99803.03;;;18.36;100.00
27984;BME280;15317;50.360;8.726;2023-08-12T22:06:36;99806.91;;;18.42;100.00
27984;BME280;15317;50.360;8.726;2023-08-12T22:11:41;99807.72;;;18.42;100.00
27984;BME280;15317;50.360;8.726;2023-08-12T22:16:44;99815.56;;;18.45;100.00
27984;BME280;15317;50.360;8.726;2023-08-12T22:21:47;99827.28;;;18.54;100.00
27984;BME280;15317;50.360;8.726;2023-08-12T22:26:52;99811.91;;;18.66;100.00
27984;BME280;15317;50.360;8.726;2023-08-12T22:31:55;99792.28;;;18.76;100.00
27984;BME280;15317;50.360;8.726;2023-08-12T22:36:58;99797.00;;;18.88;100.00
27984;BME280;15317;50.360;8.726;2023-08-12T22:42:03;99798.72;;;18.96;100.00
27984;BME280;15317;50.360;8.726;2023-08-12T22:47:06;99792.13;;;18.97;100.00
27984;BME280;15317;50.360;8.726;2023-08-12T22:52:10;99800.00;;;19.00;100.00
27984;BME280;15317;50.360;8.726;2023-08-12T22:57:15;99786.22;;;19.00;100.00
27984;BME280;15317;50.360;8.726;2023-08-12T23:02:18;99783.66;;;18.99;100.00
27984;BME280;15317;50.360;8.726;2023-08-12T23:07:22;99777.94;;;18.93;100.00
27984;BME280;15317;50.360;8.726;2023-08-12T23:12:27;99778.16;;;18.92;100.00
27984;BME280;15317;50.360;8.726;2023-08-12T23:17:30;99771.16;;;18.83;100.00
27984;BME280;15317;50.360;8.726;2023-08-12T23:22:34;99769.44;;;18.82;100.00
27984;BME280;15317;50.360;8.726;2023-08-12T23:27:39;99764.56;;;18.84;100.00
27984;BME280;15317;50.360;8.726;2023-08-12T23:32:42;99769.47;;;18.88;100.00
27984;BME280;15317;50.360;8.726;2023-08-12T23:37:46;99772.22;;;18.88;100.00
27984;BME280;15317;50.360;8.726;2023-08-12T23:42:51;99775.56;;;18.84;100.00
27984;BME280;15317;50.360;8.726;2023-08-12T23:47:54;99774.94;;;18.82;100.00
27984;BME280;15317;50.360;8.726;2023-08-12T23:52:58;99770.50;;;18.81;100.00
27984;BME280;15317;50.360;8.726;2023-08-12T23:58:03;99777.91;;;18.80;100.00
